createdAt,value
2022-09-02T00:00:30.692Z,39.61
2022-09-02T00:02:30.782Z,39.72
2022-09-02T00:05:03.553Z,39.78
2022-09-02T00:07:30.674Z,39.74
2022-09-02T00:09:30.690Z,39.65
2022-09-02T00:12:30.711Z,39.53
2022-09-02T00:15:30.652Z,39.33
2022-09-02T00:17:30.708Z,39.38
2022-09-02T00:20:30.679Z,39.43
2022-09-02T00:22:30.705Z,39.54
2022-09-02T00:24:30.678Z,39.42
2022-09-02T00:26:30.726Z,39.59
2022-09-02T00:29:30.692Z,39.54
2022-09-02T00:31:30.756Z,39.51
2022-09-02T00:34:30.700Z,39.36
2022-09-02T00:36:30.718Z,39.57
2022-09-02T00:39:30.687Z,39.54
2022-09-02T00:42:30.751Z,39.58
2022-09-02T00:45:30.727Z,39.52
2022-09-02T00:47:30.697Z,39.54
2022-09-02T00:49:30.693Z,39.49
2022-09-02T00:52:30.691Z,39.6
2022-09-02T00:54:30.728Z,39.73
2022-09-02T00:57:37.306Z,39.78
2022-09-02T01:00:31.329Z,39.83
2022-09-02T01:02:30.735Z,40.06
2022-09-02T01:06:42.003Z,40.13
2022-09-02T01:09:40.991Z,40.12
2022-09-02T01:12:30.680Z,40.07
2022-09-02T01:15:30.681Z,40.02
2022-09-02T01:17:30.696Z,40.03
2022-09-02T01:20:30.684Z,40.11
2022-09-02T01:22:30.691Z,40.22
2022-09-02T01:24:30.753Z,40.03
2022-09-02T01:27:30.672Z,40.23
2022-09-02T01:29:30.689Z,40.32
2022-09-02T01:32:30.670Z,40.2
2022-09-02T01:34:30.717Z,40.24
2022-09-02T01:37:30.699Z,40.18
2022-09-02T01:39:30.710Z,40.36
2022-09-02T01:42:30.691Z,40.33
2022-09-02T01:45:30.697Z,40.59
2022-09-02T01:47:30.702Z,40.52
2022-09-02T01:50:30.712Z,40.51
2022-09-02T01:53:30.685Z,40.45
2022-09-02T01:55:30.715Z,40.85
2022-09-02T01:58:30.738Z,40.67
2022-09-02T02:01:30.811Z,40.77
2022-09-02T02:03:30.729Z,40.63
2022-09-02T02:06:30.726Z,40.72
2022-09-02T02:08:30.715Z,40.7
2022-09-02T02:11:30.735Z,40.84
2022-09-02T02:13:30.734Z,40.7
2022-09-02T02:16:30.751Z,41.09
2022-09-02T02:19:30.734Z,41.17
2022-09-02T02:21:31.113Z,40.91
2022-09-02T02:24:30.727Z,40.82
2022-09-02T02:27:30.726Z,41
2022-09-02T02:29:30.759Z,41.01
2022-09-02T02:32:30.742Z,41.22
2022-09-02T02:35:30.709Z,41.09
2022-09-02T02:37:30.741Z,41.08
2022-09-02T02:39:30.760Z,41.01
2022-09-02T02:42:30.722Z,41.04
2022-09-02T02:44:30.754Z,41.07
2022-09-02T02:47:30.793Z,41.1
2022-09-02T02:49:30.755Z,41.11
2022-09-02T02:52:30.733Z,41.41
2022-09-02T02:54:35.037Z,41.37
2022-09-02T02:56:30.741Z,41.56
2022-09-02T02:59:30.754Z,41.65
2022-09-02T03:01:30.855Z,41.53
2022-09-02T03:04:30.748Z,41.68
2022-09-02T03:06:30.820Z,41.37
2022-09-02T03:09:30.719Z,41.79
2022-09-02T03:12:30.725Z,41.57
2022-09-02T03:14:30.749Z,41.62
2022-09-02T03:17:30.735Z,41.56
2022-09-02T03:19:30.750Z,41.46
2022-09-02T03:22:30.737Z,41.43
2022-09-02T03:25:34.958Z,41.57
2022-09-02T03:27:37.949Z,41.54
2022-09-02T03:30:30.778Z,41.59
2022-09-02T03:33:30.743Z,41.59
2022-09-02T03:35:30.787Z,41.63
2022-09-02T03:38:30.737Z,41.63
2022-09-02T03:41:30.760Z,41.3
2022-09-02T03:44:30.735Z,41.72
2022-09-02T03:46:30.756Z,41.87
2022-09-02T03:49:30.762Z,41.63
2022-09-02T03:52:30.738Z,41.6
2022-09-02T03:54:30.773Z,41.66
2022-09-02T03:57:30.747Z,42.02
2022-09-02T04:00:30.730Z,42.07
2022-09-02T04:02:30.877Z,42.03
2022-09-02T04:05:30.740Z,42.13
2022-09-02T04:08:30.767Z,41.76
2022-09-02T04:10:30.997Z,41.8
2022-09-02T04:13:30.752Z,41.55
2022-09-02T04:16:30.810Z,41.62
2022-09-02T04:19:30.785Z,41.28
2022-09-02T04:21:30.776Z,41.42
2022-09-02T04:24:30.724Z,41.7
2022-09-02T04:26:30.771Z,41.71
2022-09-02T04:28:30.780Z,41.62
2022-09-02T04:31:30.822Z,41.82
2022-09-02T04:33:30.777Z,41.83
2022-09-02T04:36:31.090Z,41.91
2022-09-02T04:39:30.742Z,41.71
2022-09-02T04:41:30.797Z,42.11
2022-09-02T04:44:30.753Z,41.8
2022-09-02T04:47:30.734Z,41.97
2022-09-02T04:49:30.746Z,42.37
2022-09-02T04:52:30.766Z,42.01
2022-09-02T04:55:30.749Z,42.1
2022-09-02T04:58:30.752Z,41.91
2022-09-02T05:00:30.813Z,41.77
2022-09-02T05:03:30.758Z,41.72
2022-09-02T05:05:30.750Z,41.93
2022-09-02T05:08:30.756Z,41.96
2022-09-02T05:11:30.738Z,41.9
2022-09-02T05:13:30.767Z,42.06
2022-09-02T05:16:30.741Z,42.04
2022-09-02T05:18:30.748Z,41.96
2022-09-02T05:21:30.759Z,41.95
2022-09-02T05:23:30.770Z,42.04
2022-09-02T05:25:30.773Z,41.99
2022-09-02T05:28:30.760Z,42.08
2022-09-02T05:31:30.843Z,42.29
2022-09-02T05:33:30.769Z,41.97
2022-09-02T05:36:30.812Z,41.88
2022-09-02T05:39:30.773Z,42.04
2022-09-02T05:41:30.791Z,42.1
2022-09-02T05:44:30.757Z,42.27
2022-09-02T05:46:30.905Z,41.88
2022-09-02T05:49:30.775Z,41.86
2022-09-02T05:51:30.833Z,41.69
2022-09-02T05:54:30.755Z,41.78
2022-09-02T05:56:30.770Z,41.71
2022-09-02T05:59:30.784Z,41.74
2022-09-02T06:01:30.827Z,41.61
2022-09-02T06:04:30.782Z,41.66
2022-09-02T06:07:30.771Z,41.54
2022-09-02T06:09:30.792Z,41.48
2022-09-02T06:12:30.798Z,41.52
2022-09-02T06:15:30.858Z,41.43
2022-09-02T06:17:30.778Z,41.44
2022-09-02T06:20:30.817Z,41.58
2022-09-02T06:23:30.818Z,41.51
2022-09-02T06:26:30.799Z,41.38
2022-09-02T06:28:30.804Z,41.25
2022-09-02T06:31:33.546Z,41.28
2022-09-02T06:33:30.777Z,40.76
2022-09-02T06:36:30.864Z,40.52
2022-09-02T06:39:30.778Z,40.11
2022-09-02T06:41:30.807Z,40
2022-09-02T06:43:30.814Z,40.21
2022-09-02T06:46:30.859Z,40
2022-09-02T06:49:30.763Z,39.79
2022-09-02T06:51:30.792Z,40.06
2022-09-02T06:53:30.790Z,39.96
2022-09-02T06:55:30.967Z,39.55
2022-09-02T06:58:30.814Z,39.42
2022-09-02T07:00:30.814Z,39.25
2022-09-02T07:02:30.858Z,39.4
2022-09-02T07:05:30.820Z,39.35
2022-09-02T07:08:30.794Z,38.76
2022-09-02T07:11:30.780Z,39
2022-09-02T07:13:30.790Z,39.22
2022-09-02T07:15:30.785Z,39.03
2022-09-02T07:17:30.801Z,39.22
2022-09-02T07:20:30.785Z,38.98
2022-09-02T07:23:30.793Z,39.1
2022-09-02T07:25:30.867Z,39.04
2022-09-02T07:28:30.781Z,38.79
2022-09-02T07:31:31.186Z,38.75
2022-09-02T07:34:30.798Z,38.8
2022-09-02T07:36:30.816Z,38.75
2022-09-02T07:39:30.775Z,38.49
2022-09-02T07:41:30.829Z,38.5
2022-09-02T07:43:30.850Z,38.36
2022-09-02T07:46:30.829Z,38.56
2022-09-02T07:50:15.205Z,38.59
2022-09-02T07:52:30.780Z,38.26
2022-09-02T07:54:30.842Z,38.63
2022-09-02T07:57:30.829Z,38.33
2022-09-02T08:03:30.832Z,38.23
2022-09-02T08:05:31.309Z,38.34
2022-09-02T08:08:30.809Z,38.22
2022-09-02T08:10:30.826Z,38.15
2022-09-02T08:13:30.804Z,38.04
2022-09-02T08:15:30.830Z,38.26
2022-09-02T08:17:30.849Z,38.15
2022-09-02T08:20:30.850Z,38.28
2022-09-02T08:23:36.962Z,38.21
2022-09-02T08:26:30.808Z,38.16
2022-09-02T08:28:30.818Z,38.14
2022-09-02T08:30:30.822Z,38.24
2022-09-02T08:32:30.844Z,38.48
2022-09-02T08:35:31.162Z,38.19
2022-09-02T08:37:30.809Z,38.17
2022-09-02T08:40:30.881Z,38.16
2022-09-02T08:43:30.815Z,38.41
2022-09-02T08:45:30.865Z,38.28
2022-09-02T08:48:30.812Z,38.39
2022-09-02T08:50:30.839Z,38.12
2022-09-02T08:53:30.811Z,37.95
2022-09-02T08:56:30.838Z,37.71
2022-09-02T08:59:30.898Z,37.51
2022-09-02T09:02:30.877Z,37.71
2022-09-02T09:04:30.844Z,37.47
2022-09-02T09:07:30.847Z,37.47
2022-09-02T09:09:30.839Z,37.43
2022-09-02T09:11:30.842Z,37.42
2022-09-02T09:14:30.831Z,37.55
2022-09-02T09:16:32.167Z,37.09
2022-09-02T09:18:37.295Z,37.4
2022-09-02T09:21:30.869Z,37.34
2022-09-02T09:24:30.830Z,37.08
2022-09-02T09:27:30.825Z,37.25
2022-09-02T09:29:30.827Z,36.91
2022-09-02T09:31:41.197Z,37.38
2022-09-02T09:34:30.821Z,37.4
2022-09-02T09:37:35.353Z,36.34
2022-09-02T09:40:30.990Z,37.01
2022-09-02T09:43:30.842Z,37.37
2022-09-02T09:46:30.863Z,36.93
2022-09-02T09:48:30.903Z,37.08
2022-09-02T09:51:30.902Z,36.22
2022-09-02T09:54:30.877Z,36.11
2022-09-02T09:56:30.863Z,35.38
2022-09-02T09:59:30.894Z,35.38
2022-09-02T10:02:33.197Z,35.95
2022-09-02T10:04:43.097Z,34.54
2022-09-02T10:07:30.874Z,36.44
2022-09-02T10:10:30.853Z,34.48
2022-09-02T10:12:30.923Z,35.87
2022-09-02T10:15:30.897Z,34.59
2022-09-02T10:18:24.776Z,34.75
2022-09-02T10:20:30.904Z,35.16
2022-09-02T10:22:37.763Z,32.78
2022-09-02T10:25:30.912Z,35.61
2022-09-02T10:28:30.863Z,34.04
2022-09-02T10:31:30.892Z,32.49
2022-09-02T10:34:30.853Z,31.55
2022-09-02T10:36:30.901Z,33.55
2022-09-02T10:39:30.892Z,34.23
2022-09-02T10:42:30.904Z,35.31
2022-09-02T10:45:30.851Z,35.56
2022-09-02T10:47:31.809Z,34.23
2022-09-02T10:50:30.869Z,33.99
2022-09-02T10:53:30.898Z,33.62
2022-09-02T10:56:30.885Z,35.36
2022-09-02T11:00:30.923Z,34.89
2022-09-02T11:02:30.889Z,34.32
2022-09-02T11:04:30.900Z,34.8
2022-09-02T11:07:30.856Z,33.2
2022-09-02T11:10:30.863Z,30.14
2022-09-02T11:13:30.870Z,30.52
2022-09-02T11:15:30.872Z,32.36
2022-09-02T11:18:30.899Z,33.83
2022-09-02T11:20:30.874Z,34.18
2022-09-02T11:23:30.916Z,32.32
2022-09-02T11:26:30.879Z,31.62
2022-09-02T11:29:30.864Z,33.12
2022-09-02T11:32:30.936Z,32.35
2022-09-02T11:35:30.892Z,32.63
2022-09-02T11:37:30.892Z,31.16
2022-09-02T11:40:34.481Z,31.25
2022-09-02T11:42:30.912Z,29.92
2022-09-02T11:45:30.975Z,30.46
2022-09-02T11:48:30.885Z,31.41
2022-09-02T11:51:30.912Z,31.44
2022-09-02T11:54:30.893Z,29.66
2022-09-02T11:56:30.928Z,31.19
2022-09-02T11:59:30.911Z,30.44
2022-09-02T12:02:38.346Z,30.2
2022-09-02T12:05:01.082Z,30.07
2022-09-02T12:06:31.300Z,30.23
2022-09-02T12:09:30.869Z,30.48
2022-09-02T12:11:30.901Z,30.86
2022-09-02T12:14:31.769Z,29.71
2022-09-02T12:16:31.002Z,30.6
2022-09-02T12:19:30.919Z,27.7
2022-09-02T12:22:30.924Z,29.27
2022-09-02T12:25:30.934Z,30.24
2022-09-02T12:27:30.924Z,30.05
2022-09-02T12:30:30.918Z,30.65
2022-09-02T12:33:30.893Z,30.07
2022-09-02T12:36:30.878Z,28.18
2022-09-02T12:38:30.915Z,28.24
2022-09-02T12:40:32.217Z,28.67
2022-09-02T12:43:30.919Z,26.26
2022-09-02T12:46:30.998Z,26.79
2022-09-02T12:48:38.167Z,26.16
2022-09-02T12:51:30.897Z,28.07
2022-09-02T12:53:30.904Z,25.43
2022-09-02T12:56:30.912Z,28.61
2022-09-02T12:59:30.928Z,28.15
2022-09-02T13:01:31.107Z,28.85
2022-09-02T13:04:30.937Z,29.02
2022-09-02T13:07:30.910Z,27.9
2022-09-02T13:09:30.908Z,27.68
2022-09-02T13:11:30.915Z,26.94
2022-09-02T13:13:30.948Z,26.93
2022-09-02T13:16:31.195Z,26.17
2022-09-02T13:19:30.935Z,25.02
2022-09-02T13:22:31.064Z,27.45
2022-09-02T13:24:30.951Z,27.64
2022-09-02T13:27:30.922Z,26.24
2022-09-02T13:29:30.913Z,26.73
2022-09-02T13:31:30.970Z,26.92
2022-09-02T13:34:30.923Z,23.86
2022-09-02T13:36:30.966Z,25.51
2022-09-02T13:39:30.969Z,25.79
2022-09-02T13:42:31.256Z,25.95
2022-09-02T13:44:30.969Z,25.44
2022-09-02T13:47:30.931Z,25.9
2022-09-02T13:50:30.931Z,23.59
2022-09-02T13:53:12.273Z,24.34
2022-09-02T13:54:30.960Z,25.06
2022-09-02T13:57:30.966Z,25.95
2022-09-02T14:00:31.220Z,26.15
2022-09-02T14:03:31.026Z,26.15
2022-09-02T14:06:30.936Z,25.46
2022-09-02T14:08:30.946Z,25.61
2022-09-02T14:11:30.930Z,22.33
2022-09-02T14:14:30.937Z,22.53
2022-09-02T14:17:30.931Z,24.8
2022-09-02T14:19:30.936Z,24.14
2022-09-02T14:21:30.934Z,25.1
2022-09-02T14:24:30.935Z,24.27
2022-09-02T14:26:30.934Z,24.27
2022-09-02T14:28:30.961Z,25.38
2022-09-02T14:31:30.969Z,22.8
2022-09-02T14:34:30.921Z,26.05
2022-09-02T14:36:30.937Z,25.51
2022-09-02T14:38:30.937Z,23.92
2022-09-02T14:40:30.951Z,23.45
2022-09-02T14:42:30.977Z,22.88
2022-09-02T14:45:30.947Z,23.34
2022-09-02T14:47:30.991Z,23.15
2022-09-02T14:50:30.940Z,23.44
2022-09-02T14:52:30.934Z,23.88
2022-09-02T14:55:30.950Z,24.79
2022-09-02T14:58:30.952Z,22.63
2022-09-02T15:01:31.003Z,24.46
2022-09-02T15:03:30.994Z,23.63
2022-09-02T15:06:30.968Z,23.96
2022-09-02T15:08:31.037Z,25.03
2022-09-02T15:11:30.961Z,24.04
2022-09-02T15:14:30.953Z,23.43
2022-09-02T15:16:30.969Z,23.81
2022-09-02T15:19:30.966Z,21.54
2022-09-02T15:22:30.978Z,24.57
2022-09-02T15:25:30.973Z,22.35
2022-09-02T15:28:30.959Z,21.83
2022-09-02T15:30:30.967Z,22.43
2022-09-02T15:32:30.999Z,22.01
2022-09-02T15:35:30.966Z,20.48
2022-09-02T15:38:31.218Z,22.87
2022-09-02T15:41:30.986Z,23.07
2022-09-02T15:44:30.985Z,22.69
2022-09-02T15:46:30.977Z,20.91
2022-09-02T15:48:31.003Z,22.85
2022-09-02T15:51:30.984Z,22.4
2022-09-02T15:54:31.019Z,21.21
2022-09-02T15:57:31.264Z,23.92
2022-09-02T16:00:31.026Z,21.84
2022-09-02T16:03:31.002Z,23.28
2022-09-02T16:05:31.020Z,24.43
2022-09-02T16:07:31.013Z,23.69
2022-09-02T16:09:31.027Z,23.04
2022-09-02T16:12:30.986Z,23.74
2022-09-02T16:15:31.008Z,22.21
2022-09-02T16:17:31.024Z,23
2022-09-02T16:20:31.025Z,24.28
2022-09-02T16:23:30.997Z,24.53
2022-09-02T16:26:31.001Z,22.11
2022-09-02T16:28:31.025Z,23.97
2022-09-02T16:31:31.061Z,23.38
2022-09-02T16:34:30.985Z,23.79
2022-09-02T16:36:31.998Z,22.66
2022-09-02T16:38:31.020Z,22.55
2022-09-02T16:41:31.021Z,22.24
2022-09-02T16:44:30.992Z,23.41
2022-09-02T16:46:31.088Z,23.13
2022-09-02T16:49:31.980Z,24.1
2022-09-02T16:51:31.037Z,23.55
2022-09-02T16:54:32.385Z,24.09
2022-09-02T16:57:31.024Z,23.09
2022-09-02T17:00:31.027Z,23.01
2022-09-02T17:03:31.163Z,22.56
2022-09-02T17:06:31.008Z,23.16
2022-09-02T17:09:31.133Z,23.07
2022-09-02T17:12:30.989Z,23.74
2022-09-02T17:15:31.014Z,22.89
2022-09-02T17:17:31.021Z,23.31
2022-09-02T17:19:32.381Z,22.91
2022-09-02T17:22:31.007Z,22.7
2022-09-02T17:24:31.095Z,22.94
2022-09-02T17:27:31.031Z,23.27
2022-09-02T17:29:48.407Z,22.77
2022-09-02T17:32:30.999Z,22.94
2022-09-02T17:34:31.009Z,21.61
2022-09-02T17:37:30.993Z,21.45
2022-09-02T17:39:37.346Z,21.77
2022-09-02T17:42:31.030Z,21.78
2022-09-02T17:45:31.119Z,21.54
2022-09-02T17:47:31.036Z,21.49
2022-09-02T17:50:31.048Z,21.84
2022-09-02T17:53:31.022Z,22.21
2022-09-02T17:55:31.028Z,22.36
2022-09-02T17:57:31.076Z,22.25
2022-09-02T17:59:31.054Z,22.54
2022-09-02T18:02:31.053Z,22.64
2022-09-02T18:04:31.092Z,22.75
2022-09-02T18:06:31.079Z,23.17
2022-09-02T18:09:31.059Z,23.6
2022-09-02T18:11:31.037Z,23.37
2022-09-02T18:13:31.064Z,23.7
2022-09-02T18:16:31.132Z,23.74
2022-09-02T18:19:31.052Z,23.83
2022-09-02T18:21:31.050Z,24.03
2022-09-02T18:24:31.062Z,23.98
2022-09-02T18:26:31.094Z,23.94
2022-09-02T18:29:31.071Z,24.06
2022-09-02T18:31:31.047Z,24.4
2022-09-02T18:34:32.421Z,24.66
2022-09-02T18:37:31.153Z,24.58
2022-09-02T18:40:31.115Z,24.6
2022-09-02T18:43:31.201Z,24.4
2022-09-02T18:46:31.081Z,24.55
2022-09-02T18:49:31.091Z,24.57
2022-09-02T18:51:35.097Z,24.93
2022-09-02T18:54:31.454Z,24.78
2022-09-02T18:57:33.492Z,24.56
2022-09-02T18:59:31.141Z,24.75
2022-09-02T19:02:31.151Z,24.94
2022-09-02T19:05:31.168Z,25.13
2022-09-02T19:08:31.202Z,25.26
2022-09-02T19:10:31.252Z,25.14
2022-09-02T19:13:31.142Z,25.14
2022-09-02T19:15:31.118Z,25.07
2022-09-02T19:17:31.135Z,25.14
2022-09-02T19:19:31.190Z,25.29
2022-09-02T19:22:31.118Z,25.25
2022-09-02T19:24:31.176Z,25.37
2022-09-02T19:27:31.120Z,25.2
2022-09-02T19:29:32.538Z,25.59
2022-09-02T19:32:31.106Z,25.64
2022-09-02T19:34:31.188Z,25.67
2022-09-02T19:36:31.509Z,25.9
2022-09-02T19:38:31.740Z,25.92
2022-09-02T19:41:31.115Z,25.8
2022-09-02T19:43:32.037Z,25.95
2022-09-02T19:47:12.157Z,26.06
2022-09-02T19:49:31.404Z,26.38
2022-09-02T19:52:31.203Z,26.46
2022-09-02T19:55:31.176Z,26.61
2022-09-02T19:58:03.068Z,27.01
2022-09-02T19:59:31.502Z,26.64
2022-09-02T20:03:31.145Z,27.58
2022-09-02T20:05:31.199Z,27.16
2022-09-02T20:07:31.206Z,27.29
2022-09-02T20:09:32.027Z,27.42
2022-09-02T20:12:31.091Z,27.1
2022-09-02T20:15:31.117Z,27.15
2022-09-02T20:18:31.192Z,27.24
2022-09-02T20:21:31.092Z,27.87
2022-09-02T20:23:31.199Z,27.78
2022-09-02T20:26:31.127Z,28.12
2022-09-02T20:29:31.189Z,27.39
2022-09-02T20:32:31.092Z,28.04
2022-09-02T20:35:31.857Z,27.95
2022-09-02T20:38:31.122Z,28.6
2022-09-02T20:40:31.164Z,28.13
2022-09-02T20:43:31.135Z,28.19
2022-09-02T20:45:31.159Z,28.31
2022-09-02T20:48:32.145Z,27.94
2022-09-02T20:51:31.107Z,28.56
2022-09-02T20:54:31.126Z,28.68
2022-09-02T20:57:31.152Z,28.62
2022-09-02T20:59:31.166Z,28.87
2022-09-02T21:02:31.159Z,28.78
2022-09-02T21:04:31.154Z,29.31
2022-09-02T21:07:31.193Z,29.53
2022-09-02T21:10:31.395Z,28.92
2022-09-02T21:13:31.127Z,28.96
2022-09-02T21:16:31.142Z,29.14
2022-09-02T21:18:31.139Z,28.85
2022-09-02T21:21:31.128Z,28.87
2022-09-02T21:23:31.171Z,29.42
2022-09-02T21:25:31.154Z,29.04
2022-09-02T21:28:31.154Z,29.54
2022-09-02T21:31:31.182Z,29.13
2022-09-02T21:33:31.126Z,28.95
2022-09-02T21:35:31.134Z,29.47
2022-09-02T21:37:31.133Z,29.11
2022-09-02T21:40:31.114Z,29
2022-09-02T21:42:31.127Z,29.2
2022-09-02T21:45:31.120Z,29.6
2022-09-02T21:47:31.141Z,29.07
2022-09-02T21:50:31.133Z,29.91
2022-09-02T21:52:31.158Z,29.23
2022-09-02T21:55:31.151Z,29.31
2022-09-02T21:58:31.144Z,29.31
2022-09-02T22:01:31.189Z,29.42
2022-09-02T22:03:31.145Z,29.79
2022-09-02T22:06:31.128Z,29.61
2022-09-02T22:08:31.146Z,29.79
2022-09-02T22:11:31.141Z,29.81
2022-09-02T22:13:31.152Z,29.53
2022-09-02T22:15:31.153Z,29.7
2022-09-02T22:18:31.126Z,29.66
2022-09-02T22:20:31.163Z,30.1
2022-09-02T22:23:31.120Z,29.73
2022-09-02T22:25:31.136Z,29.67
2022-09-02T22:28:31.149Z,29.97
2022-09-02T22:30:31.210Z,29.92
2022-09-02T22:34:31.143Z,29.95
2022-09-02T22:36:31.164Z,29.8
2022-09-02T22:39:31.204Z,29.86
2022-09-02T22:41:31.159Z,29.55
2022-09-02T22:44:31.171Z,30.2
2022-09-02T22:46:31.228Z,29.42
2022-09-02T22:48:31.152Z,29.73
2022-09-02T22:51:31.169Z,29.84
2022-09-02T22:54:31.157Z,29.84
2022-09-02T22:56:31.169Z,29.54
2022-09-02T22:59:31.216Z,29.39
2022-09-02T23:02:31.136Z,28.92
2022-09-02T23:04:31.171Z,30
2022-09-02T23:07:31.166Z,29.28
2022-09-02T23:10:31.172Z,29.54
2022-09-02T23:13:31.177Z,28.22
2022-09-02T23:15:31.162Z,28.51
2022-09-02T23:18:31.185Z,29.43
2022-09-02T23:20:31.168Z,28.77
2022-09-02T23:23:31.171Z,28.69
2022-09-02T23:26:31.135Z,28.58
2022-09-02T23:28:31.206Z,28.62
2022-09-02T23:30:31.519Z,28.25
2022-09-02T23:33:31.185Z,28.25
2022-09-02T23:35:31.167Z,28.66
2022-09-02T23:38:31.152Z,29.03
2022-09-02T23:40:31.216Z,28.75
2022-09-02T23:43:31.181Z,28.92
2022-09-02T23:46:31.240Z,28.41
2022-09-02T23:49:31.170Z,28.75
2022-09-02T23:51:38.355Z,28.65
2022-09-02T23:54:31.188Z,28.6
2022-09-02T23:56:32.804Z,28.56
2022-09-02T23:58:31.190Z,28.19
